createdAt,value
2016-03-17T00:00:46.106Z,1013.25
2016-03-17T00:01:46.124Z,1013.21
2016-03-17T00:02:46.158Z,1013.18
2016-03-17T00:03:46.145Z,1013.21
2016-03-17T00:04:46.164Z,1013.22
2016-03-17T00:05:46.181Z,1013.2
2016-03-17T00:06:46.184Z,1013.18
2016-03-17T00:07:46.202Z,1013.18
2016-03-17T00:08:46.221Z,1013.17
2016-03-17T00:09:46.224Z,1013.14
2016-03-17T00:10:46.241Z,1013.17
2016-03-17T00:11:46.260Z,1013.17
2016-03-17T00:12:46.263Z,1013.15
2016-03-17T00:13:46.281Z,1013.16
2016-03-17T00:14:46.299Z,1013.13
2016-03-17T00:15:46.302Z,1013.14
2016-03-17T00:16:46.321Z,1013.14
2016-03-17T00:17:46.338Z,1013.14
2016-03-17T00:18:46.342Z,1013.16
2016-03-17T00:19:46.360Z,1013.11
2016-03-17T00:20:46.379Z,1013.11
2016-03-17T00:21:46.382Z,1013.09
2016-03-17T00:22:46.399Z,1013.1
2016-03-17T00:23:46.402Z,1013.07
2016-03-17T00:24:46.421Z,1013.05
2016-03-17T00:25:46.438Z,1013.07
2016-03-17T00:26:46.456Z,1013.05
2016-03-17T00:27:46.459Z,1013.09
2016-03-17T00:28:46.478Z,1013.08
2016-03-17T00:29:46.481Z,1013.06
2016-03-17T00:30:46.499Z,1013.04
2016-03-17T00:31:46.501Z,1013.06
2016-03-17T00:32:46.520Z,1013.08
2016-03-17T00:33:46.538Z,1013.05
2016-03-17T00:34:46.556Z,1013.05
2016-03-17T00:35:46.575Z,1013.09
2016-03-17T00:36:46.578Z,1013.06
2016-03-17T00:37:46.596Z,1013.07
2016-03-17T00:38:46.614Z,1013.05
2016-03-17T00:39:46.617Z,1013.03
2016-03-17T00:40:46.635Z,1013.02
2016-03-17T00:41:46.638Z,1013.03
2016-03-17T00:42:46.655Z,1013.05
2016-03-17T00:43:46.658Z,1013
2016-03-17T00:44:46.670Z,1013.03
2016-03-17T00:45:46.688Z,1012.97
2016-03-17T00:46:46.706Z,1012.96
2016-03-17T00:47:46.709Z,1013.03
2016-03-17T00:48:46.728Z,1013
2016-03-17T00:49:46.731Z,1013.01
2016-03-17T00:50:46.764Z,1012.99
2016-03-17T00:51:46.767Z,1013.03
2016-03-17T00:52:46.786Z,1012.99
2016-03-17T00:53:46.788Z,1013.01
2016-03-17T00:54:46.806Z,1012.96
2016-03-17T00:55:46.809Z,1012.98
2016-03-17T00:56:46.828Z,1012.94
2016-03-17T00:57:46.846Z,1012.94
2016-03-17T00:58:46.864Z,1012.93
2016-03-17T00:59:46.867Z,1012.91
2016-03-17T01:00:46.885Z,1012.94
2016-03-17T01:01:46.888Z,1012.93
2016-03-17T01:02:46.907Z,1012.88
2016-03-17T01:03:46.909Z,1012.91
2016-03-17T01:04:46.927Z,1012.86
2016-03-17T01:05:46.930Z,1012.84
2016-03-17T01:06:46.948Z,1012.85
2016-03-17T01:07:46.962Z,1012.81
2016-03-17T01:08:46.980Z,1012.84
2016-03-17T01:09:46.998Z,1012.8
2016-03-17T01:10:47.001Z,1012.79
2016-03-17T01:11:47.019Z,1012.78
2016-03-17T01:12:47.022Z,1012.78
2016-03-17T01:13:47.040Z,1012.72
2016-03-17T01:14:47.059Z,1012.73
2016-03-17T01:15:47.061Z,1012.72
2016-03-17T01:16:47.080Z,1012.71
2016-03-17T01:17:47.082Z,1012.72
2016-03-17T01:18:47.101Z,1012.72
2016-03-17T01:19:47.120Z,1012.69
2016-03-17T01:20:47.137Z,1012.69
2016-03-17T01:21:47.140Z,1012.68
2016-03-17T01:22:47.158Z,1012.64
2016-03-17T01:23:47.255Z,1012.69
2016-03-17T01:24:47.179Z,1012.71
2016-03-17T01:25:47.182Z,1012.68
2016-03-17T01:26:47.200Z,1012.71
2016-03-17T01:27:47.203Z,1012.73
2016-03-17T01:28:47.222Z,1012.7
2016-03-17T01:29:47.224Z,1012.74
2016-03-17T01:30:47.242Z,1012.74
2016-03-17T01:31:47.260Z,1012.73
2016-03-17T01:32:47.263Z,1012.72
2016-03-17T01:33:47.282Z,1012.71
2016-03-17T01:34:47.299Z,1012.73
2016-03-17T01:35:47.302Z,1012.73
2016-03-17T01:36:47.321Z,1012.7
2016-03-17T01:37:47.324Z,1012.72
2016-03-17T01:38:47.342Z,1012.67
2016-03-17T01:39:47.345Z,1012.66
2016-03-17T01:40:47.363Z,1012.69
2016-03-17T01:41:47.382Z,1012.68
2016-03-17T01:42:47.385Z,1012.67
2016-03-17T01:43:47.402Z,1012.69
2016-03-17T01:44:47.421Z,1012.67
2016-03-17T01:45:47.424Z,1012.68
2016-03-17T01:46:47.457Z,1012.66
2016-03-17T01:47:47.445Z,1012.63
2016-03-17T01:48:47.462Z,1012.63
2016-03-17T01:49:47.465Z,1012.62
2016-03-17T01:50:47.484Z,1012.6
2016-03-17T01:51:47.487Z,1012.64
2016-03-17T01:52:47.505Z,1012.62
2016-03-17T01:53:47.523Z,1012.65
2016-03-17T01:54:47.542Z,1012.63
2016-03-17T01:55:47.545Z,1012.65
2016-03-17T01:56:47.562Z,1012.61
2016-03-17T01:57:47.565Z,1012.68
2016-03-17T01:58:47.583Z,1012.69
2016-03-17T01:59:47.603Z,1012.64
2016-03-17T02:00:47.605Z,1012.64
2016-03-17T02:01:47.623Z,1012.66
2016-03-17T02:02:47.625Z,1012.64
2016-03-17T02:03:47.644Z,1012.67
2016-03-17T02:04:47.646Z,1012.59
2016-03-17T02:05:47.664Z,1012.63
2016-03-17T02:06:47.667Z,1012.58
2016-03-17T02:07:47.685Z,1012.62
2016-03-17T02:08:47.688Z,1012.62
2016-03-17T02:09:47.707Z,1012.61
2016-03-17T02:10:47.725Z,1012.67
2016-03-17T02:11:47.727Z,1012.69
2016-03-17T02:12:47.747Z,1012.68
2016-03-17T02:13:47.749Z,1012.65
2016-03-17T02:14:47.768Z,1012.68
2016-03-17T02:15:47.786Z,1012.68
2016-03-17T02:16:47.788Z,1012.67
2016-03-17T02:17:47.807Z,1012.65
2016-03-17T02:18:47.809Z,1012.7
2016-03-17T02:19:47.827Z,1012.69
2016-03-17T02:20:47.830Z,1012.65
2016-03-17T02:21:47.848Z,1012.68
2016-03-17T02:22:47.868Z,1012.68
2016-03-17T02:23:47.870Z,1012.69
2016-03-17T02:24:47.888Z,1012.66
2016-03-17T02:25:47.891Z,1012.68
2016-03-17T02:26:47.909Z,1012.64
2016-03-17T02:27:47.912Z,1012.64
2016-03-17T02:28:47.930Z,1012.65
2016-03-17T02:29:47.948Z,1012.64
2016-03-17T02:30:47.951Z,1012.66
2016-03-17T02:31:47.970Z,1012.68
2016-03-17T02:32:47.972Z,1012.67
2016-03-17T02:33:47.990Z,1012.66
2016-03-17T02:34:47.992Z,1012.7
2016-03-17T02:35:48.011Z,1012.66
2016-03-17T02:36:48.030Z,1012.71
2016-03-17T02:37:48.033Z,1012.65
2016-03-17T02:38:48.036Z,1012.67
2016-03-17T02:39:48.053Z,1012.64
2016-03-17T02:40:48.072Z,1012.69
2016-03-17T02:41:48.074Z,1012.65
2016-03-17T02:42:48.093Z,1012.71
2016-03-17T02:43:48.111Z,1012.71
2016-03-17T02:44:48.113Z,1012.72
2016-03-17T02:45:48.132Z,1012.72
2016-03-17T02:46:48.150Z,1012.73
2016-03-17T02:47:48.153Z,1012.72
2016-03-17T02:48:48.171Z,1012.7
2016-03-17T02:49:48.174Z,1012.69
2016-03-17T02:50:48.193Z,1012.71
2016-03-17T02:51:48.195Z,1012.69
2016-03-17T02:52:48.214Z,1012.67
2016-03-17T02:53:48.216Z,1012.63
2016-03-17T02:54:48.235Z,1012.65
2016-03-17T02:55:48.253Z,1012.71
2016-03-17T02:56:48.256Z,1012.69
2016-03-17T02:57:48.258Z,1012.72
2016-03-17T02:58:48.277Z,1012.72
2016-03-17T02:59:48.295Z,1012.69
2016-03-17T03:00:48.297Z,1012.65
2016-03-17T03:01:48.315Z,1012.65
2016-03-17T03:02:48.318Z,1012.68
2016-03-17T03:03:48.337Z,1012.66
2016-03-17T03:04:48.340Z,1012.64
2016-03-17T03:05:48.358Z,1012.67
2016-03-17T03:06:48.361Z,1012.65
2016-03-17T03:07:48.379Z,1012.65
2016-03-17T03:08:48.382Z,1012.67
2016-03-17T03:09:48.415Z,1012.66
2016-03-17T03:10:48.418Z,1012.67
2016-03-17T03:11:48.436Z,1012.67
2016-03-17T03:12:48.439Z,1012.66
2016-03-17T03:13:48.457Z,1012.66
2016-03-17T03:14:48.475Z,1012.66
2016-03-17T03:15:48.477Z,1012.65
2016-03-17T03:16:48.480Z,1012.68
2016-03-17T03:17:48.499Z,1012.66
2016-03-17T03:18:48.502Z,1012.65
2016-03-17T03:19:48.520Z,1012.66
2016-03-17T03:20:48.523Z,1012.62
2016-03-17T03:21:48.541Z,1012.58
2016-03-17T03:22:48.544Z,1012.64
2016-03-17T03:23:48.563Z,1012.63
2016-03-17T03:24:48.566Z,1012.57
2016-03-17T03:25:48.584Z,1012.6
2016-03-17T03:26:48.602Z,1012.59
2016-03-17T03:27:48.604Z,1012.59
2016-03-17T03:28:48.623Z,1012.57
2016-03-17T03:29:48.626Z,1012.62
2016-03-17T03:30:48.643Z,1012.58
2016-03-17T03:31:48.662Z,1012.57
2016-03-17T03:32:48.664Z,1012.58
2016-03-17T03:33:48.683Z,1012.61
2016-03-17T03:34:48.686Z,1012.62
2016-03-17T03:35:48.704Z,1012.56
2016-03-17T03:36:48.707Z,1012.58
2016-03-17T03:37:48.713Z,1012.55
2016-03-17T03:38:48.703Z,1012.55
2016-03-17T03:39:48.694Z,1012.54
2016-03-17T03:40:48.700Z,1012.56
2016-03-17T03:41:48.705Z,1012.51
2016-03-17T03:42:48.704Z,1012.56
2016-03-17T03:43:48.718Z,1012.52
2016-03-17T03:44:48.718Z,1012.55
2016-03-17T03:45:48.732Z,1012.52
2016-03-17T03:46:48.730Z,1012.5
2016-03-17T03:47:48.744Z,1012.5
2016-03-17T03:48:48.746Z,1012.49
2016-03-17T03:49:48.763Z,1012.47
2016-03-17T03:50:48.779Z,1012.49
2016-03-17T03:51:48.780Z,1012.49
2016-03-17T03:52:48.782Z,1012.48
2016-03-17T03:53:48.800Z,1012.5
2016-03-17T03:54:48.818Z,1012.49
2016-03-17T03:55:48.819Z,1012.5
2016-03-17T03:56:48.822Z,1012.47
2016-03-17T03:57:48.838Z,1012.5
2016-03-17T03:58:48.857Z,1012.51
2016-03-17T03:59:48.875Z,1012.53
2016-03-17T04:00:48.878Z,1012.5
2016-03-17T04:01:48.880Z,1012.53
2016-03-17T04:02:48.899Z,1012.54
2016-03-17T04:03:48.901Z,1012.5
2016-03-17T04:04:48.920Z,1012.52
2016-03-17T04:05:48.922Z,1012.51
2016-03-17T04:06:48.940Z,1012.52
2016-03-17T04:07:48.943Z,1012.52
2016-03-17T04:08:48.961Z,1012.5
2016-03-17T04:09:48.964Z,1012.54
2016-03-17T04:10:48.983Z,1012.54
2016-03-17T04:11:49.001Z,1012.53
2016-03-17T04:12:49.004Z,1012.53
2016-03-17T04:13:49.022Z,1012.56
2016-03-17T04:14:49.025Z,1012.55
2016-03-17T04:15:49.043Z,1012.5
2016-03-17T04:16:49.045Z,1012.61
2016-03-17T04:17:49.064Z,1012.58
2016-03-17T04:18:49.067Z,1012.58
2016-03-17T04:19:49.085Z,1012.62
2016-03-17T04:20:49.088Z,1012.6
2016-03-17T04:21:49.105Z,1012.62
2016-03-17T04:22:49.108Z,1012.58
2016-03-17T04:23:49.127Z,1012.58
2016-03-17T04:24:49.130Z,1012.61
2016-03-17T04:25:49.149Z,1012.6
2016-03-17T04:26:49.151Z,1012.57
2016-03-17T04:27:49.169Z,1012.56
2016-03-17T04:28:49.172Z,1012.55
2016-03-17T04:29:49.191Z,1012.56
2016-03-17T04:30:49.208Z,1012.53
2016-03-17T04:31:49.211Z,1012.58
2016-03-17T04:32:49.229Z,1012.53
2016-03-17T04:33:49.232Z,1012.57
2016-03-17T04:34:49.234Z,1012.55
2016-03-17T04:35:49.253Z,1012.62
2016-03-17T04:36:49.271Z,1012.6
2016-03-17T04:37:49.258Z,1012.56
2016-03-17T04:38:49.276Z,1012.6
2016-03-17T04:39:49.295Z,1012.6
2016-03-17T04:40:49.298Z,1012.59
2016-03-17T04:41:49.317Z,1012.61
2016-03-17T04:42:49.320Z,1012.56
2016-03-17T04:43:49.337Z,1012.59
2016-03-17T04:44:49.340Z,1012.6
2016-03-17T04:45:49.389Z,1012.59
2016-03-17T04:46:49.361Z,1012.56
2016-03-17T04:47:49.426Z,1012.52
2016-03-17T04:48:49.382Z,1012.55
2016-03-17T04:49:49.400Z,1012.5
2016-03-17T04:50:49.403Z,1012.49
2016-03-17T04:51:49.421Z,1012.53
2016-03-17T04:52:49.424Z,1012.47
2016-03-17T04:53:49.441Z,1012.51
2016-03-17T04:54:49.460Z,1012.45
2016-03-17T04:55:49.463Z,1012.45
2016-03-17T04:56:49.482Z,1012.49
2016-03-17T04:57:49.484Z,1012.53
2016-03-17T04:58:49.503Z,1012.51
2016-03-17T04:59:49.505Z,1012.49
2016-03-17T05:00:49.508Z,1012.5
2016-03-17T05:01:49.526Z,1012.53
2016-03-17T05:02:49.544Z,1012.49
2016-03-17T05:03:49.547Z,1012.51
2016-03-17T05:04:49.565Z,1012.49
2016-03-17T05:05:49.568Z,1012.51
2016-03-17T05:06:49.571Z,1012.46
2016-03-17T05:07:49.589Z,1012.46
2016-03-17T05:08:49.607Z,1012.48
2016-03-17T05:09:49.609Z,1012.51
2016-03-17T05:10:49.612Z,1012.52
2016-03-17T05:11:49.631Z,1012.48
2016-03-17T05:12:49.650Z,1012.53
2016-03-17T05:13:49.653Z,1012.55
2016-03-17T05:14:49.671Z,1012.54
2016-03-17T05:15:49.673Z,1012.55
2016-03-17T05:16:49.675Z,1012.54
2016-03-17T05:17:49.695Z,1012.56
2016-03-17T05:18:49.697Z,1012.58
2016-03-17T05:19:49.715Z,1012.53
2016-03-17T05:20:49.717Z,1012.52
2016-03-17T05:21:49.736Z,1012.53
2016-03-17T05:22:49.739Z,1012.55
2016-03-17T05:23:49.758Z,1012.56
2016-03-17T05:24:49.776Z,1012.53
2016-03-17T05:25:49.778Z,1012.56
2016-03-17T05:26:49.781Z,1012.58
2016-03-17T05:27:49.799Z,1012.58
2016-03-17T05:28:49.802Z,1012.65
2016-03-17T05:29:49.821Z,1012.62
2016-03-17T05:30:49.823Z,1012.61
2016-03-17T05:31:49.841Z,1012.64
2016-03-17T05:32:49.843Z,1012.63
2016-03-17T05:33:49.863Z,1012.6
2016-03-17T05:34:49.865Z,1012.66
2016-03-17T05:35:49.883Z,1012.65
2016-03-17T05:36:49.886Z,1012.67
2016-03-17T05:37:49.904Z,1012.66
2016-03-17T05:38:49.923Z,1012.63
2016-03-17T05:39:49.926Z,1012.64
2016-03-17T05:40:49.928Z,1012.68
2016-03-17T05:41:49.946Z,1012.68
2016-03-17T05:42:49.949Z,1012.67
2016-03-17T05:43:49.968Z,1012.7
2016-03-17T05:44:49.970Z,1012.72
2016-03-17T05:45:49.989Z,1012.7
2016-03-17T05:46:50.006Z,1012.7
2016-03-17T05:47:50.009Z,1012.73
2016-03-17T05:48:50.012Z,1012.74
2016-03-17T05:49:50.030Z,1012.72
2016-03-17T05:50:50.033Z,1012.73
2016-03-17T05:51:50.050Z,1012.73
2016-03-17T05:52:50.053Z,1012.75
2016-03-17T05:53:50.072Z,1012.71
2016-03-17T05:54:50.075Z,1012.71
2016-03-17T05:55:50.094Z,1012.73
2016-03-17T05:56:50.096Z,1012.76
2016-03-17T05:57:50.114Z,1012.74
2016-03-17T05:58:50.116Z,1012.74
2016-03-17T05:59:50.135Z,1012.79
2016-03-17T06:00:50.138Z,1012.75
2016-03-17T06:01:50.157Z,1012.75
2016-03-17T06:02:50.160Z,1012.76
2016-03-17T06:03:50.177Z,1012.74
2016-03-17T06:04:50.180Z,1012.76
2016-03-17T06:05:50.199Z,1012.69
2016-03-17T06:06:50.202Z,1012.68
2016-03-17T06:07:50.219Z,1012.73
2016-03-17T06:08:50.222Z,1012.68
2016-03-17T06:09:50.240Z,1012.7
2016-03-17T06:10:50.243Z,1012.69
2016-03-17T06:11:50.262Z,1012.67
2016-03-17T06:12:50.264Z,1012.65
2016-03-17T06:13:50.282Z,1012.69
2016-03-17T06:14:50.300Z,1012.65
2016-03-17T06:15:50.304Z,1012.69
2016-03-17T06:16:50.306Z,1012.68
2016-03-17T06:17:50.325Z,1012.66
2016-03-17T06:18:50.343Z,1012.72
2016-03-17T06:19:50.345Z,1012.7
2016-03-17T06:20:50.364Z,1012.68
2016-03-17T06:21:50.367Z,1012.68
2016-03-17T06:22:50.384Z,1012.66
2016-03-17T06:23:50.387Z,1012.64
2016-03-17T06:24:50.405Z,1012.66
2016-03-17T06:25:50.408Z,1012.64
2016-03-17T06:26:50.426Z,1012.7
2016-03-17T06:27:50.444Z,1012.72
2016-03-17T06:28:50.447Z,1012.73
2016-03-17T06:29:50.465Z,1012.75
2016-03-17T06:30:50.469Z,1012.74
2016-03-17T06:31:50.471Z,1012.7
2016-03-17T06:32:50.490Z,1012.75
2016-03-17T06:33:50.508Z,1012.76
2016-03-17T06:34:50.511Z,1012.78
2016-03-17T06:35:50.529Z,1012.75
2016-03-17T06:36:50.561Z,1012.78
2016-03-17T06:37:50.592Z,1012.8
2016-03-17T06:38:50.549Z,1012.8
2016-03-17T06:39:50.570Z,1012.78
2016-03-17T06:40:50.578Z,1012.8
2016-03-17T06:41:50.580Z,1012.81
2016-03-17T06:42:50.599Z,1012.84
2016-03-17T06:43:50.617Z,1012.79
2016-03-17T06:44:50.619Z,1012.8
2016-03-17T06:45:50.638Z,1012.8
2016-03-17T06:46:50.641Z,1012.82
2016-03-17T06:47:50.658Z,1012.81
2016-03-17T06:48:50.677Z,1012.82
2016-03-17T06:49:50.683Z,1012.88
2016-03-17T06:50:50.686Z,1012.79
2016-03-17T06:51:50.704Z,1012.82
2016-03-17T06:52:50.722Z,1012.87
2016-03-17T06:53:50.725Z,1012.84
2016-03-17T06:54:50.743Z,1012.87
2016-03-17T06:55:50.762Z,1012.89
2016-03-17T06:56:50.795Z,1012.89
2016-03-17T06:57:50.782Z,1012.86
2016-03-17T06:58:50.801Z,1012.87
2016-03-17T06:59:50.803Z,1012.87
2016-03-17T07:00:50.822Z,1012.86
2016-03-17T07:01:50.824Z,1012.88
2016-03-17T07:02:50.842Z,1012.87
2016-03-17T07:03:50.845Z,1012.89
2016-03-17T07:04:50.864Z,1012.89
2016-03-17T07:05:50.867Z,1012.87
2016-03-17T07:06:50.884Z,1012.84
2016-03-17T07:07:50.903Z,1012.88
2016-03-17T07:08:50.906Z,1012.86
2016-03-17T07:09:50.925Z,1012.92
2016-03-17T07:10:50.943Z,1012.93
2016-03-17T07:11:50.961Z,1012.9
2016-03-17T07:12:50.964Z,1012.94
2016-03-17T07:13:50.982Z,1012.9
2016-03-17T07:14:51.016Z,1012.83
2016-03-17T07:15:50.987Z,1012.88
2016-03-17T07:16:51.005Z,1012.87
2016-03-17T07:17:51.024Z,1012.87
2016-03-17T07:18:51.042Z,1012.89
2016-03-17T07:19:51.061Z,1012.92
2016-03-17T07:20:51.063Z,1012.88
2016-03-17T07:21:51.066Z,1012.88
2016-03-17T07:22:51.084Z,1012.9
2016-03-17T07:23:51.102Z,1012.92
2016-03-17T07:24:51.105Z,1012.91
2016-03-17T07:25:51.124Z,1012.9
2016-03-17T07:26:51.142Z,1012.88
2016-03-17T07:27:51.145Z,1012.89
2016-03-17T07:28:51.163Z,1012.86
2016-03-17T07:29:51.166Z,1012.87
2016-03-17T07:30:51.184Z,1012.9
2016-03-17T07:31:51.202Z,1012.9
2016-03-17T07:32:51.205Z,1012.92
2016-03-17T07:33:51.224Z,1012.87
2016-03-17T07:34:51.257Z,1012.91
2016-03-17T07:35:51.259Z,1012.92
2016-03-17T07:36:51.262Z,1012.9
2016-03-17T07:37:51.281Z,1012.87
2016-03-17T07:38:51.299Z,1012.95
2016-03-17T07:39:51.302Z,1012.91
2016-03-17T07:40:51.320Z,1012.94
2016-03-17T07:41:51.338Z,1012.95
2016-03-17T07:42:51.341Z,1012.93
2016-03-17T07:43:51.359Z,1012.94
2016-03-17T07:44:51.440Z,1012.96
2016-03-17T07:45:51.381Z,1012.96
2016-03-17T07:46:51.399Z,1012.99
2016-03-17T07:47:51.433Z,1013.05
2016-03-17T07:48:51.420Z,1013.01
2016-03-17T07:49:51.438Z,1012.98
2016-03-17T07:50:51.456Z,1013.03
2016-03-17T07:51:51.459Z,1013.03
2016-03-17T07:52:51.477Z,1013.04
2016-03-17T07:53:51.496Z,1013.05
2016-03-17T07:54:51.498Z,1013.01
2016-03-17T07:55:51.533Z,1013.02
2016-03-17T07:56:51.535Z,1012.97
2016-03-17T07:57:51.538Z,1013.01
2016-03-17T07:58:51.557Z,1013.01
2016-03-17T07:59:51.574Z,1013.06
2016-03-17T08:00:51.593Z,1013.01
2016-03-17T08:01:51.595Z,1013.03
2016-03-17T08:02:51.613Z,1013.03
2016-03-17T08:03:51.632Z,1013.01
2016-03-17T08:04:51.651Z,1013
2016-03-17T08:05:51.668Z,1013.01
2016-03-17T08:06:51.676Z,1013
2016-03-17T08:07:51.679Z,1013.01
2016-03-17T08:08:51.697Z,1013
2016-03-17T08:09:51.715Z,1013
2016-03-17T08:10:51.718Z,1013.01
2016-03-17T08:11:51.737Z,1013.01
2016-03-17T08:12:51.756Z,1013
2016-03-17T08:13:51.773Z,1012.94
2016-03-17T08:14:51.776Z,1012.98
2016-03-17T08:15:51.795Z,1012.94
2016-03-17T08:16:51.813Z,1012.93
2016-03-17T08:17:51.831Z,1012.9
2016-03-17T08:18:51.833Z,1012.9
2016-03-17T08:19:51.853Z,1012.89
2016-03-17T08:20:51.870Z,1012.9
2016-03-17T08:21:51.873Z,1012.9
2016-03-17T08:22:51.891Z,1012.89
2016-03-17T08:23:51.910Z,1012.88
2016-03-17T08:24:51.927Z,1012.89
2016-03-17T08:25:51.930Z,1012.9
2016-03-17T08:26:51.949Z,1012.85
2016-03-17T08:27:51.968Z,1012.81
2016-03-17T08:28:51.971Z,1012.86
2016-03-17T08:29:51.988Z,1012.82
2016-03-17T08:30:52.007Z,1012.81
2016-03-17T08:31:52.024Z,1012.78
2016-03-17T08:32:52.027Z,1012.78
2016-03-17T08:33:52.046Z,1012.73
2016-03-17T08:34:52.065Z,1012.74
2016-03-17T08:35:52.083Z,1012.78
2016-03-17T08:36:52.086Z,1012.82
2016-03-17T08:37:52.120Z,1012.79
2016-03-17T08:38:52.123Z,1012.77
2016-03-17T08:39:52.141Z,1012.77
2016-03-17T08:40:52.143Z,1012.76
2016-03-17T08:41:52.162Z,1012.78
2016-03-17T08:42:52.179Z,1012.77
2016-03-17T08:43:52.181Z,1012.77
2016-03-17T08:44:52.201Z,1012.79
2016-03-17T08:45:52.219Z,1012.82
2016-03-17T08:46:52.237Z,1012.78
2016-03-17T08:47:52.255Z,1012.78
2016-03-17T08:48:52.289Z,1012.76
2016-03-17T08:49:52.277Z,1012.73
2016-03-17T08:50:52.295Z,1012.78
2016-03-17T08:51:52.313Z,1012.73
2016-03-17T08:52:52.331Z,1012.7
2016-03-17T08:53:52.459Z,1012.67
2016-03-17T08:54:52.353Z,1012.68
2016-03-17T08:55:52.371Z,1012.68
2016-03-17T08:56:52.389Z,1012.68
2016-03-17T08:57:52.391Z,1012.7
2016-03-17T08:58:52.410Z,1012.64
2016-03-17T08:59:52.429Z,1012.61
2016-03-17T09:00:52.432Z,1012.66
2016-03-17T09:01:52.449Z,1012.69
2016-03-17T09:02:52.468Z,1012.68
2016-03-17T09:03:52.485Z,1012.64
2016-03-17T09:04:52.505Z,1012.62
2016-03-17T09:05:52.507Z,1012.59
2016-03-17T09:06:52.531Z,1012.66
2016-03-17T09:07:52.533Z,1012.67
2016-03-17T09:08:52.552Z,1012.64
2016-03-17T09:09:52.570Z,1012.59
2016-03-17T09:10:52.588Z,1012.66
2016-03-17T09:11:52.606Z,1012.64
2016-03-17T09:12:52.609Z,1012.63
2016-03-17T09:13:52.628Z,1012.6
2016-03-17T09:14:52.646Z,1012.62
2016-03-17T09:15:52.664Z,1012.64
2016-03-17T09:16:52.714Z,1012.6
2016-03-17T09:17:52.716Z,1012.6
2016-03-17T09:18:52.750Z,1012.63
2016-03-17T09:19:52.752Z,1012.63
2016-03-17T09:20:52.739Z,1012.63
2016-03-17T09:21:52.758Z,1012.59
2016-03-17T09:22:54.807Z,1012.6
2016-03-17T09:23:52.780Z,1012.6
2016-03-17T09:24:52.829Z,1012.57
2016-03-17T09:25:54.253Z,1012.58
2016-03-17T09:26:52.822Z,1012.59
2016-03-17T09:27:52.840Z,1012.51
2016-03-17T09:28:52.859Z,1012.51
2016-03-17T09:29:52.878Z,1012.53
2016-03-17T09:30:52.880Z,1012.55
2016-03-17T09:31:52.898Z,1012.55
2016-03-17T09:32:52.917Z,1012.58
2016-03-17T09:33:52.920Z,1012.56
2016-03-17T09:34:52.938Z,1012.57
2016-03-17T09:35:52.956Z,1012.56
2016-03-17T09:36:52.975Z,1012.55
2016-03-17T09:37:52.977Z,1012.59
2016-03-17T09:38:53.011Z,1012.53
2016-03-17T09:39:53.030Z,1012.56
2016-03-17T09:40:53.048Z,1012.49
2016-03-17T09:41:53.050Z,1012.47
2016-03-17T09:42:53.069Z,1012.47
2016-03-17T09:43:53.087Z,1012.46
2016-03-17T09:44:53.090Z,1012.48
2016-03-17T09:45:53.108Z,1012.49
2016-03-17T09:46:53.126Z,1012.55
2016-03-17T09:47:53.144Z,1012.53
2016-03-17T09:48:53.179Z,1012.46
2016-03-17T09:49:53.166Z,1012.46
2016-03-17T09:50:53.184Z,1012.48
2016-03-17T09:51:53.202Z,1012.45
2016-03-17T09:52:53.221Z,1012.47
2016-03-17T09:53:53.240Z,1012.49
2016-03-17T09:54:53.258Z,1012.42
2016-03-17T09:55:53.259Z,1012.43
2016-03-17T09:56:53.278Z,1012.4
2016-03-17T09:57:53.297Z,1012.4
2016-03-17T09:58:53.315Z,1012.42
2016-03-17T09:59:53.318Z,1012.46
2016-03-17T10:00:53.336Z,1012.51
2016-03-17T10:01:53.354Z,1012.47
2016-03-17T10:02:53.373Z,1012.44
2016-03-17T10:03:53.391Z,1012.48
2016-03-17T10:04:53.394Z,1012.46
2016-03-17T10:05:53.412Z,1012.42
2016-03-17T10:06:53.430Z,1012.45
2016-03-17T10:07:53.448Z,1012.49
2016-03-17T10:08:53.467Z,1012.42
2016-03-17T10:09:53.486Z,1012.42
2016-03-17T10:10:53.488Z,1012.4
2016-03-17T10:11:53.505Z,1012.43
2016-03-17T10:12:53.525Z,1012.43
2016-03-17T10:13:53.544Z,1012.43
2016-03-17T10:14:53.545Z,1012.37
2016-03-17T10:15:53.580Z,1012.39
2016-03-17T10:16:53.597Z,1012.35
2016-03-17T10:17:53.600Z,1012.4
2016-03-17T10:18:53.618Z,1012.38
2016-03-17T10:19:53.621Z,1012.22
2016-03-17T10:20:53.655Z,1012.29
2016-03-17T10:21:53.658Z,1012.31
2016-03-17T10:22:53.676Z,1012.28
2016-03-17T10:23:53.695Z,1012.24
2016-03-17T10:24:53.712Z,1012.27
2016-03-17T10:25:53.715Z,1012.2
2016-03-17T10:26:53.749Z,1012.25
2016-03-17T10:27:53.768Z,1012.19
2016-03-17T10:28:53.771Z,1012.19
2016-03-17T10:29:53.789Z,1012.18
2016-03-17T10:30:53.807Z,1012.18
2016-03-17T10:31:53.825Z,1012.16
2016-03-17T10:32:53.845Z,1012.18
2016-03-17T10:33:53.847Z,1012.16
2016-03-17T10:34:53.864Z,1012.16
2016-03-17T10:35:53.883Z,1012.19
2016-03-17T10:36:53.901Z,1012.12
2016-03-17T10:37:53.920Z,1012.11
2016-03-17T10:38:53.939Z,1012.2
2016-03-17T10:39:53.941Z,1012.1
2016-03-17T10:40:53.959Z,1012.08
2016-03-17T10:41:53.977Z,1012.11
2016-03-17T10:42:53.996Z,1012.15
2016-03-17T10:43:54.014Z,1012.12
2016-03-17T10:44:54.033Z,1012.12
2016-03-17T10:45:54.035Z,1012.1
2016-03-17T10:46:54.069Z,1012.09
2016-03-17T10:47:54.072Z,1012.04
2016-03-17T10:48:54.091Z,1012.07
2016-03-17T10:49:54.108Z,1012.07
2016-03-17T10:50:54.127Z,1011.99
2016-03-17T10:51:54.145Z,1012
2016-03-17T10:52:54.148Z,1012.02
2016-03-17T10:53:54.182Z,1011.98
2016-03-17T10:54:54.185Z,1011.95
2016-03-17T10:55:54.202Z,1011.96
2016-03-17T10:56:54.221Z,1011.88
2016-03-17T10:57:54.239Z,1011.91
2016-03-17T10:58:54.243Z,1011.81
2016-03-17T10:59:54.260Z,1011.8
2016-03-17T11:00:54.295Z,1011.71
2016-03-17T11:01:54.297Z,1011.77
2016-03-17T11:02:54.315Z,1011.75
2016-03-17T11:03:54.334Z,1011.71
2016-03-17T11:04:54.351Z,1011.71
2016-03-17T11:05:54.354Z,1011.65
2016-03-17T11:06:54.373Z,1011.63
2016-03-17T11:07:54.407Z,1011.65
2016-03-17T11:08:54.409Z,1011.61
2016-03-17T11:09:54.430Z,1011.58
2016-03-17T11:10:54.449Z,1011.55
2016-03-17T11:11:54.467Z,1011.57
2016-03-17T11:12:54.486Z,1011.56
2016-03-17T11:13:54.489Z,1011.53
2016-03-17T11:14:54.506Z,1011.53
2016-03-17T11:15:54.526Z,1011.54
2016-03-17T11:16:54.544Z,1011.5
2016-03-17T11:17:54.561Z,1011.52
2016-03-17T11:18:54.580Z,1011.52
2016-03-17T11:19:54.583Z,1011.54
2016-03-17T11:20:54.600Z,1011.54
2016-03-17T11:21:54.620Z,1011.51
2016-03-17T11:22:54.652Z,1011.52
2016-03-17T11:23:54.656Z,1011.47
2016-03-17T11:24:54.674Z,1011.48
2016-03-17T11:25:54.693Z,1011.47
2016-03-17T11:26:54.710Z,1011.51
2016-03-17T11:27:54.730Z,1011.48
2016-03-17T11:28:54.747Z,1011.45
2016-03-17T11:29:54.766Z,1011.47
2016-03-17T11:30:54.769Z,1011.47
2016-03-17T11:31:54.787Z,1011.48
2016-03-17T11:32:54.804Z,1011.44
2016-03-17T11:33:54.823Z,1011.41
2016-03-17T11:34:54.842Z,1011.4
2016-03-17T11:35:54.860Z,1011.41
2016-03-17T11:36:54.879Z,1011.38
2016-03-17T11:37:54.896Z,1011.39
2016-03-17T11:38:54.915Z,1011.38
2016-03-17T11:39:54.918Z,1011.35
2016-03-17T11:40:54.937Z,1011.37
2016-03-17T11:41:54.954Z,1011.34
2016-03-17T11:42:54.973Z,1011.36
2016-03-17T11:43:54.991Z,1011.35
2016-03-17T11:44:55.009Z,1011.26
2016-03-17T11:45:55.028Z,1011.28
2016-03-17T11:46:55.046Z,1011.29
2016-03-17T11:47:55.064Z,1011.22
2016-03-17T11:48:55.067Z,1011.21
2016-03-17T11:49:55.086Z,1011.21
2016-03-17T11:50:55.103Z,1011.19
2016-03-17T11:51:55.122Z,1011.17
2016-03-17T11:52:55.141Z,1011.13
2016-03-17T11:53:55.158Z,1011.17
2016-03-17T11:54:55.177Z,1011.18
2016-03-17T11:55:55.179Z,1011.15
2016-03-17T11:56:55.213Z,1011.13
2016-03-17T11:57:55.216Z,1011.11
2016-03-17T11:58:55.250Z,1011.07
2016-03-17T11:59:55.269Z,1011.08
2016-03-17T12:00:55.276Z,1011.1
2016-03-17T12:01:55.294Z,1011.08
2016-03-17T12:02:55.312Z,1011.09
2016-03-17T12:03:55.331Z,1011.08
2016-03-17T12:04:55.349Z,1011.08
2016-03-17T12:05:55.351Z,1011.05
2016-03-17T12:06:55.386Z,1010.99
2016-03-17T12:07:55.389Z,1010.98
2016-03-17T12:08:55.407Z,1010.96